createdAt,value
2022-12-08T00:01:19.567Z,27.70
2022-12-08T00:06:26.776Z,27.54
2022-12-08T00:11:33.956Z,27.69
2022-12-08T00:16:41.297Z,27.66
2022-12-08T00:21:48.363Z,27.79
2022-12-08T00:26:55.532Z,27.86
2022-12-08T00:32:02.879Z,27.70
2022-12-08T00:37:09.986Z,27.84
2022-12-08T00:42:17.176Z,27.84
2022-12-08T00:47:25.056Z,27.83
2022-12-08T00:52:31.506Z,27.88
2022-12-08T00:57:38.761Z,27.93
2022-12-08T01:02:46.022Z,27.90
2022-12-08T01:07:53.228Z,27.94
2022-12-08T01:13:00.453Z,27.98
2022-12-08T01:18:07.693Z,28.06
2022-12-08T01:23:14.819Z,28.15
2022-12-08T01:28:21.987Z,28.22
2022-12-08T01:33:29.272Z,27.74
2022-12-08T01:38:36.463Z,27.86
2022-12-08T01:43:43.685Z,27.67
2022-12-08T01:48:50.924Z,28.31
2022-12-08T01:53:58.061Z,28.25
2022-12-08T01:59:05.230Z,28.18
2022-12-08T02:04:12.485Z,28.42
2022-12-08T02:09:19.662Z,28.67
2022-12-08T02:14:26.859Z,28.36
2022-12-08T02:19:34.090Z,28.44
2022-12-08T02:24:41.272Z,28.35
2022-12-08T02:29:48.536Z,28.63
2022-12-08T02:34:55.910Z,28.28
2022-12-08T02:40:03.772Z,28.44
2022-12-08T02:45:10.342Z,28.04
2022-12-08T02:50:17.630Z,28.43
2022-12-08T02:55:24.822Z,28.56
2022-12-08T03:00:32.043Z,27.96
2022-12-08T03:05:39.247Z,28.40
2022-12-08T03:10:46.429Z,28.32
2022-12-08T03:15:53.648Z,28.66
2022-12-08T03:21:00.862Z,28.80
2022-12-08T03:26:08.050Z,28.35
2022-12-08T03:31:15.313Z,28.91
2022-12-08T03:36:22.477Z,28.72
2022-12-08T03:41:29.632Z,28.77
2022-12-08T03:46:36.816Z,29.05
2022-12-08T03:51:44.008Z,29.26
2022-12-08T03:56:51.267Z,29.30
2022-12-08T04:01:58.471Z,29.08
2022-12-08T04:07:05.669Z,29.05
2022-12-08T04:12:12.854Z,29.00
2022-12-08T04:17:20.028Z,29.39
2022-12-08T04:22:27.218Z,28.91
2022-12-08T04:27:34.400Z,28.81
2022-12-08T04:32:45.883Z,29.04
2022-12-08T04:37:48.857Z,28.58
2022-12-08T04:42:56.009Z,29.04
2022-12-08T04:48:03.205Z,29.18
2022-12-08T04:53:10.424Z,29.12
2022-12-08T04:58:17.611Z,29.11
2022-12-08T05:03:28.478Z,29.43
2022-12-08T05:08:32.162Z,29.57
2022-12-08T05:13:39.241Z,29.35
2022-12-08T05:18:46.447Z,29.20
2022-12-08T05:23:53.666Z,29.38
2022-12-08T05:29:00.893Z,29.30
2022-12-08T05:34:08.066Z,29.69
2022-12-08T05:39:15.337Z,29.31
2022-12-08T05:44:22.513Z,29.68
2022-12-08T05:49:29.673Z,29.90
2022-12-08T05:54:36.961Z,29.81
2022-12-08T05:59:44.093Z,29.16
2022-12-08T06:04:51.260Z,29.08
2022-12-08T06:09:58.518Z,28.94
2022-12-08T06:15:05.663Z,28.66
2022-12-08T06:20:12.859Z,28.76
2022-12-08T06:25:20.125Z,28.56
2022-12-08T06:30:27.238Z,28.63
2022-12-08T06:35:34.430Z,28.04
2022-12-08T06:40:41.611Z,28.23
2022-12-08T06:45:48.930Z,28.37
2022-12-08T06:50:55.979Z,28.59
2022-12-08T06:56:03.244Z,28.29
2022-12-08T07:01:10.620Z,29.02
2022-12-08T07:06:17.733Z,28.90
2022-12-08T07:11:24.950Z,28.86
2022-12-08T07:16:32.227Z,29.07
2022-12-08T07:21:39.347Z,29.41
2022-12-08T07:26:46.569Z,29.71
2022-12-08T07:31:53.790Z,29.64
2022-12-08T07:37:01.012Z,29.71
2022-12-08T07:42:08.207Z,29.65
2022-12-08T07:47:15.352Z,29.39
2022-12-08T07:52:22.533Z,29.15
2022-12-08T07:57:29.745Z,29.35
2022-12-08T08:02:37.027Z,29.67
2022-12-08T08:07:44.257Z,29.57
2022-12-08T08:12:51.295Z,29.66
2022-12-08T08:17:58.516Z,29.20
2022-12-08T08:23:05.738Z,29.30
2022-12-08T08:28:13.028Z,29.44
2022-12-08T08:33:20.222Z,28.94
2022-12-08T08:38:27.454Z,29.15
2022-12-08T08:43:38.313Z,29.37
2022-12-08T08:48:41.893Z,29.21
2022-12-08T08:53:49.145Z,29.29
2022-12-08T08:58:56.388Z,28.42
2022-12-08T09:04:03.672Z,29.02
2022-12-08T09:09:10.850Z,28.82
2022-12-08T09:14:18.057Z,28.91
2022-12-08T09:19:25.343Z,28.96
2022-12-08T09:24:32.563Z,29.11
2022-12-08T09:29:39.799Z,29.03
2022-12-08T09:34:51.927Z,29.43
2022-12-08T09:39:54.183Z,29.77
2022-12-08T09:45:01.413Z,29.91
2022-12-08T09:50:09.026Z,29.86
2022-12-08T09:55:15.816Z,29.85
2022-12-08T10:00:23.084Z,29.82
2022-12-08T10:05:30.336Z,29.81
2022-12-08T10:10:37.412Z,29.90
2022-12-08T10:15:44.732Z,29.84
2022-12-08T10:20:51.816Z,29.87
2022-12-08T10:25:59.219Z,29.60
2022-12-08T10:31:06.517Z,29.67
2022-12-08T10:36:13.571Z,29.73
2022-12-08T10:41:20.732Z,29.82
2022-12-08T10:46:28.053Z,29.80
2022-12-08T10:51:35.082Z,29.76
2022-12-08T10:56:42.240Z,29.64
2022-12-08T11:01:49.704Z,29.23
2022-12-08T11:06:56.660Z,30.04
2022-12-08T11:12:03.896Z,31.47
2022-12-08T11:17:11.115Z,30.97
2022-12-08T11:22:18.278Z,30.80
2022-12-08T11:27:25.474Z,31.04
2022-12-08T11:32:32.654Z,30.98
2022-12-08T11:37:39.779Z,31.07
2022-12-08T11:42:46.980Z,31.03
2022-12-08T11:47:55.955Z,31.54
2022-12-08T11:53:01.298Z,31.62
2022-12-08T11:58:08.614Z,31.46
2022-12-08T12:03:15.808Z,30.57
2022-12-08T12:08:23.034Z,30.33
2022-12-08T12:13:30.112Z,29.86
2022-12-08T12:18:37.330Z,29.53
2022-12-08T12:23:44.460Z,29.27
2022-12-08T12:28:51.632Z,29.05
2022-12-08T12:33:58.851Z,28.93
2022-12-08T12:39:05.995Z,28.69
2022-12-08T12:44:13.151Z,28.49
2022-12-08T12:49:20.368Z,28.34
2022-12-08T12:54:27.570Z,28.20
2022-12-08T12:59:34.784Z,28.04
2022-12-08T13:04:42.021Z,27.91
2022-12-08T13:09:49.170Z,28.20
2022-12-08T13:14:56.345Z,28.52
2022-12-08T13:20:03.616Z,27.94
2022-12-08T13:25:10.776Z,27.79
2022-12-08T13:30:17.972Z,27.64
2022-12-08T13:35:25.185Z,27.56
2022-12-08T13:40:32.374Z,27.46
2022-12-08T13:46:34.694Z,27.32
2022-12-08T14:01:01.193Z,27.44
2022-12-08T14:06:12.921Z,27.07
2022-12-08T14:11:15.572Z,27.00
2022-12-08T14:16:22.855Z,26.99
2022-12-08T14:21:34.383Z,27.66
2022-12-08T14:26:37.122Z,27.17
2022-12-08T14:31:44.343Z,27.17
2022-12-08T14:36:51.618Z,27.14
2022-12-08T14:41:58.795Z,27.10
2022-12-08T14:47:06.285Z,27.03
2022-12-08T14:52:13.274Z,26.95
2022-12-08T14:57:20.450Z,26.86
2022-12-08T15:02:27.768Z,26.84
2022-12-08T15:07:35.005Z,26.70
2022-12-08T15:12:42.127Z,26.67
2022-12-08T15:17:49.374Z,26.62
2022-12-08T15:22:56.604Z,26.59
2022-12-08T15:28:04.048Z,26.56
2022-12-08T15:33:11.203Z,26.48
2022-12-08T15:38:18.426Z,26.43
2022-12-08T15:43:25.608Z,26.42
2022-12-08T15:48:32.805Z,26.36
2022-12-08T15:53:40.054Z,26.29
2022-12-08T15:58:56.144Z,26.29
2022-12-08T16:04:47.463Z,26.21
2022-12-08T16:09:11.757Z,26.19
2022-12-08T16:14:54.655Z,26.16
2022-12-08T16:19:15.998Z,26.12
2022-12-08T16:24:23.269Z,26.09
2022-12-08T16:29:30.440Z,26.03
2022-12-08T16:34:37.670Z,26.00
2022-12-08T16:39:46.169Z,26.00
2022-12-08T16:44:52.067Z,26.02
2022-12-08T16:49:59.266Z,25.92
2022-12-08T16:55:07.031Z,25.86
2022-12-08T17:00:13.678Z,25.86
2022-12-08T17:05:21.162Z,25.78
2022-12-08T17:10:28.620Z,25.75
2022-12-08T17:15:35.928Z,25.74
2022-12-08T17:20:43.158Z,25.72
2022-12-08T17:25:50.748Z,25.65
2022-12-08T17:30:58.848Z,25.64
2022-12-08T17:36:06.173Z,25.69
2022-12-08T17:41:13.385Z,25.68
2022-12-08T17:46:20.670Z,25.65
2022-12-08T17:51:27.762Z,25.53
2022-12-08T17:56:35.055Z,25.49
2022-12-08T18:01:42.350Z,25.52
2022-12-08T18:06:49.517Z,25.41
2022-12-08T18:11:57.017Z,25.42
2022-12-08T18:17:04.776Z,25.36
2022-12-08T18:22:12.053Z,25.44
2022-12-08T18:27:19.370Z,25.28
2022-12-08T18:32:26.637Z,25.24
2022-12-08T18:37:34.250Z,25.19
2022-12-08T18:42:41.551Z,25.19
2022-12-08T18:47:49.075Z,25.14
2022-12-08T18:52:56.684Z,25.15
2022-12-08T18:58:04.043Z,25.15
2022-12-08T19:03:11.504Z,25.06
2022-12-08T19:08:18.946Z,25.05
2022-12-08T19:13:26.322Z,25.03
2022-12-08T19:18:33.831Z,25.00
2022-12-08T19:23:41.266Z,24.95
2022-12-08T19:28:48.547Z,24.99
2022-12-08T19:33:56.066Z,24.97
2022-12-08T19:39:03.411Z,24.97
2022-12-08T19:44:11.013Z,24.85
2022-12-08T19:49:19.432Z,24.89
2022-12-08T19:54:27.340Z,24.83
2022-12-08T19:59:35.085Z,24.85
2022-12-08T20:04:42.677Z,24.78
2022-12-08T20:09:50.188Z,24.77
2022-12-08T20:14:57.826Z,24.69
2022-12-08T20:20:07.334Z,24.68
2022-12-08T20:25:13.444Z,24.68
2022-12-08T20:30:20.495Z,24.59
2022-12-08T20:35:28.050Z,24.56
2022-12-08T20:40:35.663Z,24.55
2022-12-08T20:45:43.521Z,24.54
2022-12-08T20:50:51.073Z,24.52
2022-12-08T20:55:58.342Z,24.56
2022-12-08T21:01:05.590Z,24.48
2022-12-08T21:06:12.794Z,24.48
2022-12-08T21:11:20.053Z,24.51
2022-12-08T21:16:27.467Z,24.45
2022-12-08T21:21:34.603Z,24.44
2022-12-08T21:26:41.967Z,24.39
2022-12-08T21:31:49.671Z,24.42
2022-12-08T21:36:57.184Z,24.42
2022-12-08T21:42:04.293Z,24.38
2022-12-08T21:47:11.811Z,24.39
2022-12-08T21:52:19.055Z,24.36
2022-12-08T21:57:26.337Z,24.32
2022-12-08T22:02:33.720Z,24.28
2022-12-08T22:07:41.094Z,24.33
2022-12-08T22:12:47.993Z,24.34
2022-12-08T22:17:55.444Z,24.38
2022-12-08T22:23:02.386Z,24.25
2022-12-08T22:28:09.600Z,24.23
2022-12-08T22:33:16.906Z,24.24
2022-12-08T22:38:24.038Z,24.19
2022-12-08T22:43:31.301Z,24.21
2022-12-08T22:48:38.734Z,24.18
2022-12-08T22:53:45.805Z,24.24
2022-12-08T22:58:53.303Z,24.23
2022-12-08T23:04:00.570Z,24.20
2022-12-08T23:09:07.551Z,24.17
2022-12-08T23:14:14.750Z,24.10
2022-12-08T23:19:21.906Z,24.06
2022-12-08T23:24:29.160Z,24.06
2022-12-08T23:29:36.349Z,24.08
2022-12-08T23:34:43.638Z,24.01
2022-12-08T23:39:51.116Z,23.96
2022-12-08T23:44:58.392Z,23.89
2022-12-08T23:50:05.914Z,23.97
2022-12-08T23:55:12.658Z,23.91
